Time,TemperatureF,DewpointF,PressureIn,WindDirection,WindDirectionDegrees,WindSpeedMPH,WindSpeedGustMPH,Humidity,HourlyPrecipIn,Conditions,Clouds,dailyrainin,SoftwareType,DateUTC
2013-11-07 15:53:00,70.0,57.2,29.79,North,0,2.0,6.0,64,0.00,,,0.00,Weather View 32 v70,2013-11-07 20:53:00,
2013-11-07 15:54:00,70.0,57.2,29.79,NNW,338,3.0,6.0,64,0.00,,,0.00,Weather View 32 v70,2013-11-07 20:54:00,
2013-11-07 15:59:00,70.0,57.7,29.79,West,270,4.0,7.0,65,0.00,,,0.00,Weather View 32 v70,2013-11-07 20:59:00,
2013-11-07 16:04:00,70.0,57.7,29.79,North,0,6.0,7.0,65,0.00,,,0.00,Weather View 32 v70,2013-11-07 21:04:00,
2013-11-07 16:09:00,70.0,57.2,29.79,ENE,68,2.0,10.0,64,0.00,,,0.00,Weather View 32 v70,2013-11-07 21:09:00,
2013-11-07 16:14:00,70.0,56.8,29.79,North,0,3.0,10.0,63,0.00,,,0.00,Weather View 32 v70,2013-11-07 21:14:00,
2013-11-07 16:19:00,69.0,55.8,29.80,North,0,3.0,10.0,63,0.00,,,0.00,Weather View 32 v70,2013-11-07 21:19:00,
2013-11-07 16:24:00,69.0,55.8,29.80,NNW,338,6.0,10.0,63,0.00,,,0.00,Weather View 32 v70,2013-11-07 21:24:00,
2013-11-07 16:29:00,69.0,53.6,29.80,ENE,68,3.0,10.0,58,0.00,,,0.00,Weather View 32 v70,2013-11-07 21:29:00,
2013-11-07 16:34:00,69.0,52.6,29.80,NNW,338,5.0,11.0,56,0.00,,,0.00,Weather View 32 v70,2013-11-07 21:34:00,
2013-11-07 16:39:00,69.0,52.1,29.80,West,270,11.0,12.0,55,0.00,,,0.00,Weather View 32 v70,2013-11-07 21:39:00,
2013-11-07 16:44:00,68.0,50.2,29.81,NNW,338,7.0,18.0,53,0.00,,,0.00,Weather View 32 v70,2013-11-07 21:44:00,
2013-11-07 16:49:00,68.0,49.7,29.81,West,270,6.0,21.0,52,0.00,,,0.00,Weather View 32 v70,2013-11-07 21:49:00,
2013-11-07 16:54:00,67.0,48.7,29.82,North,0,5.0,21.0,52,0.00,,,0.00,Weather View 32 v70,2013-11-07 21:54:00,
2013-11-07 16:59:00,67.0,48.7,29.82,North,0,13.0,21.0,52,0.00,,,0.00,Weather View 32 v70,2013-11-07 21:59:00,
2013-11-07 17:04:00,66.0,47.8,29.82,NNW,338,11.0,21.0,52,0.00,,,0.00,Weather View 32 v70,2013-11-07 22:04:00,
2013-11-07 17:09:00,66.0,47.3,29.83,NNW,338,6.0,21.0,51,0.00,,,0.00,Weather View 32 v70,2013-11-07 22:09:00,
2013-11-07 17:14:00,65.0,46.9,29.83,NNW,338,13.0,21.0,52,0.00,,,0.00,Weather View 32 v70,2013-11-07 22:14:00,
2013-11-07 17:19:00,64.0,44.9,29.84,NNW,338,5.0,21.0,50,0.00,,,0.00,Weather View 32 v70,2013-11-07 22:19:00,
2013-11-07 17:24:00,64.0,44.9,29.84,NNW,338,14.0,21.0,50,0.00,,,0.00,Weather View 32 v70,2013-11-07 22:24:00,
2013-11-07 17:29:00,63.0,44.0,29.84,NNW,338,5.0,21.0,50,0.00,,,0.00,Weather View 32 v70,2013-11-07 22:29:00,
2013-11-07 17:34:00,63.0,44.0,29.85,North,0,8.0,21.0,50,0.00,,,0.00,Weather View 32 v70,2013-11-07 22:34:00,
2013-11-07 17:39:00,62.0,42.6,29.85,North,0,8.0,21.0,49,0.00,,,0.00,Weather View 32 v70,2013-11-07 22:39:00,
2013-11-07 17:44:00,62.0,42.6,29.86,ENE,68,3.0,21.0,49,0.00,,,0.00,Weather View 32 v70,2013-11-07 22:44:00,
2013-11-07 17:49:00,61.0,41.1,29.86,NNW,338,8.0,18.0,48,0.00,,,0.00,Weather View 32 v70,2013-11-07 22:49:00,
2013-11-07 17:54:00,61.0,40.6,29.86,North,0,9.0,18.0,47,0.00,,,0.00,Weather View 32 v70,2013-11-07 22:54:00,
2013-11-07 17:59:00,60.0,36.8,29.87,North,0,8.0,18.0,42,0.00,,,0.00,Weather View 32 v70,2013-11-07 22:59:00,
2013-11-07 18:04:00,60.0,35.6,29.87,West,270,5.0,18.0,40,0.00,,,0.00,Weather View 32 v70,2013-11-07 23:04:00,
2013-11-07 18:09:00,60.0,36.2,29.87,ENE,68,7.0,18.0,41,0.00,,,0.00,Weather View 32 v70,2013-11-07 23:09:00,
2013-11-07 18:14:00,59.0,34.7,29.88,NNW,338,5.0,18.0,40,0.00,,,0.00,Weather View 32 v70,2013-11-07 23:14:00,
2013-11-07 18:19:00,59.0,35.3,29.88,NNW,338,9.0,18.0,41,0.00,,,0.00,Weather View 32 v70,2013-11-07 23:19:00,
2013-11-07 18:24:00,59.0,35.3,29.88,NNW,338,6.0,18.0,41,0.00,,,0.00,Weather View 32 v70,2013-11-07 23:24:00,
2013-11-07 18:29:00,58.0,35.6,29.89,NNW,338,8.0,18.0,43,0.00,,,0.00,Weather View 32 v70,2013-11-07 23:29:00,
2013-11-07 18:34:00,58.0,35.6,29.89,NNW,338,7.0,18.0,43,0.00,,,0.00,Weather View 32 v70,2013-11-07 23:34:00,
2013-11-07 18:39:00,58.0,36.2,29.89,North,0,3.0,18.0,44,0.00,,,0.00,Weather View 32 v70,2013-11-07 23:39:00,
2013-11-07 18:44:00,57.0,34.7,29.89,NNW,338,6.0,18.0,43,0.00,,,0.00,Weather View 32 v70,2013-11-07 23:44:00,
2013-11-07 18:49:00,57.0,34.7,29.89,NNW,338,9.0,19.0,43,0.00,,,0.00,Weather View 32 v70,2013-11-07 23:49:00,
2013-11-07 18:54:00,57.0,34.7,29.90,ENE,68,4.0,19.0,43,0.00,,,0.00,Weather View 32 v70,2013-11-07 23:54:00,
2013-11-07 18:59:00,57.0,34.7,29.90,North,0,4.0,19.0,43,0.00,,,0.00,Weather View 32 v70,2013-11-07 23:59:00,
2013-11-07 19:04:00,57.0,35.3,29.90,North,0,3.0,19.0,44,0.00,,,0.00,Weather View 32 v70,2013-11-08 00:04:00,
2013-11-07 19:09:00,56.0,34.3,29.90,NNW,338,5.0,19.0,44,0.00,,,0.00,Weather View 32 v70,2013-11-08 00:09:00,
2013-11-07 19:14:00,56.0,34.9,29.91,North,0,3.0,19.0,45,0.00,,,0.00,Weather View 32 v70,2013-11-08 00:14:00,
2013-11-07 19:19:00,56.0,35.5,29.90,North,0,4.0,19.0,46,0.00,,,0.00,Weather View 32 v70,2013-11-08 00:19:00,
2013-11-07 19:24:00,56.0,36.0,29.90,North,0,2.0,19.0,47,0.00,,,0.00,Weather View 32 v70,2013-11-08 00:24:00,
2013-11-07 19:29:00,55.0,35.1,29.91,North,0,3.0,19.0,47,0.00,,,0.00,Weather View 32 v70,2013-11-08 00:29:00,
2013-11-07 19:34:00,55.0,35.6,29.91,NNW,338,7.0,19.0,48,0.00,,,0.00,Weather View 32 v70,2013-11-08 00:34:00,
2013-11-07 19:39:00,55.0,35.6,29.91,North,0,5.0,19.0,48,0.00,,,0.00,Weather View 32 v70,2013-11-08 00:39:00,
2013-11-07 19:44:00,55.0,35.6,29.91,NNW,338,6.0,19.0,48,0.00,,,0.00,Weather View 32 v70,2013-11-08 00:44:00,
2013-11-07 19:49:00,55.0,36.2,29.92,North,0,3.0,14.0,49,0.00,,,0.00,Weather View 32 v70,2013-11-08 00:49:00,
2013-11-07 19:54:00,55.0,36.2,29.92,North,0,2.0,12.0,49,0.00,,,0.00,Weather View 32 v70,2013-11-08 00:54:00,
2013-11-07 19:59:00,55.0,36.7,29.92,ENE,68,5.0,12.0,50,0.00,,,0.00,Weather View 32 v70,2013-11-08 00:59:00,
2013-11-07 20:05:00,54.0,35.7,29.92,NNW,338,1.0,12.0,50,0.00,,,0.00,Weather View 32 v70,2013-11-08 01:05:00,
2013-11-07 20:10:00,54.0,36.2,29.92,North,0,1.0,12.0,51,0.00,,,0.00,Weather View 32 v70,2013-11-08 01:10:00,
2013-11-07 20:15:00,54.0,36.2,29.92,North,0,5.0,12.0,51,0.00,,,0.00,Weather View 32 v70,2013-11-08 01:15:00,
2013-11-07 20:20:00,54.0,36.7,29.92,North,0,3.0,12.0,52,0.00,,,0.00,Weather View 32 v70,2013-11-08 01:20:00,
2013-11-07 20:25:00,54.0,36.7,29.92,North,0,3.0,12.0,52,0.00,,,0.00,Weather View 32 v70,2013-11-08 01:25:00,
2013-11-07 20:30:00,54.0,36.7,29.92,North,0,3.0,12.0,52,0.00,,,0.00,Weather View 32 v70,2013-11-08 01:30:00,
2013-11-07 20:35:00,53.0,35.8,29.92,NNW,338,5.0,12.0,52,0.00,,,0.00,Weather View 32 v70,2013-11-08 01:35:00,
2013-11-07 20:40:00,53.0,35.8,29.92,North,0,3.0,11.0,52,0.00,,,0.00,Weather View 32 v70,2013-11-08 01:40:00,
2013-11-07 20:45:00,53.0,36.3,29.92,North,0,3.0,11.0,53,0.00,,,0.00,Weather View 32 v70,2013-11-08 01:45:00,
2013-11-07 20:50:00,53.0,36.8,29.92,North,0,2.0,11.0,54,0.00,,,0.00,Weather View 32 v70,2013-11-08 01:50:00,
2013-11-07 20:55:00,53.0,36.8,29.92,North,0,4.0,11.0,54,0.00,,,0.00,Weather View 32 v70,2013-11-08 01:55:00,
2013-11-07 21:00:00,52.0,35.8,29.92,North,0,5.0,11.0,54,0.00,,,0.00,Weather View 32 v70,2013-11-08 02:00:00,
2013-11-07 21:05:00,52.0,35.8,29.92,ENE,68,3.0,12.0,54,0.00,,,0.00,Weather View 32 v70,2013-11-08 02:05:00,
2013-11-07 21:10:00,52.0,35.8,29.92,North,0,5.0,12.0,54,0.00,,,0.00,Weather View 32 v70,2013-11-08 02:10:00,
2013-11-07 21:15:00,52.0,35.8,29.92,NNW,338,7.0,13.0,54,0.00,,,0.00,Weather View 32 v70,2013-11-08 02:15:00,
2013-11-07 21:20:00,52.0,35.8,29.92,ENE,68,3.0,13.0,54,0.00,,,0.00,Weather View 32 v70,2013-11-08 02:20:00,
2013-11-07 21:25:00,52.0,35.8,29.92,NNW,338,10.0,13.0,54,0.00,,,0.00,Weather View 32 v70,2013-11-08 02:25:00,
2013-11-07 21:30:00,51.0,34.9,29.92,North,0,5.0,13.0,54,0.00,,,0.00,Weather View 32 v70,2013-11-08 02:30:00,
2013-11-07 21:35:00,51.0,34.9,29.92,NNW,338,3.0,13.0,54,0.00,,,0.00,Weather View 32 v70,2013-11-08 02:35:00,
2013-11-07 21:40:00,51.0,34.9,29.92,North,0,6.0,13.0,54,0.00,,,0.00,Weather View 32 v70,2013-11-08 02:40:00,
2013-11-07 21:45:00,51.0,34.9,29.92,East,90,3.0,13.0,54,0.00,,,0.00,Weather View 32 v70,2013-11-08 02:45:00,
2013-11-07 21:50:00,51.0,34.9,29.93,NNW,338,1.0,13.0,54,0.00,,,0.00,Weather View 32 v70,2013-11-08 02:50:00,
2013-11-07 21:55:00,51.0,34.9,29.93,ENE,68,3.0,13.0,54,0.00,,,0.00,Weather View 32 v70,2013-11-08 02:55:00,
2013-11-07 22:00:00,50.0,34.4,29.93,ENE,68,3.0,13.0,55,0.00,,,0.00,Weather View 32 v70,2013-11-08 03:00:00,
2013-11-07 22:05:00,50.0,34.4,29.93,ENE,68,2.0,13.0,55,0.00,,,0.00,Weather View 32 v70,2013-11-08 03:05:00,
2013-11-07 22:10:00,50.0,34.9,29.93,North,0,3.0,13.0,56,0.00,,,0.00,Weather View 32 v70,2013-11-08 03:10:00,
2013-11-07 22:15:00,50.0,34.9,29.93,North,0,5.0,12.0,56,0.00,,,0.00,Weather View 32 v70,2013-11-08 03:15:00,
2013-11-07 22:20:00,50.0,34.9,29.93,NNW,338,1.0,11.0,56,0.00,,,0.00,Weather View 32 v70,2013-11-08 03:20:00,
2013-11-07 22:25:00,50.0,35.3,29.93,North,0,1.0,11.0,57,0.00,,,0.00,Weather View 32 v70,2013-11-08 03:25:00,
2013-11-07 22:30:00,49.0,34.4,29.93,North,0,3.0,11.0,57,0.00,,,0.00,Weather View 32 v70,2013-11-08 03:30:00,
2013-11-07 22:35:00,49.0,34.8,29.93,ENE,68,3.0,10.0,58,0.00,,,0.00,Weather View 32 v70,2013-11-08 03:35:00,
2013-11-07 22:40:00,49.0,34.8,29.93,North,0,3.0,10.0,58,0.00,,,0.00,Weather View 32 v70,2013-11-08 03:40:00,
2013-11-07 22:45:00,49.0,34.8,29.93,North,0,2.0,10.0,58,0.00,,,0.00,Weather View 32 v70,2013-11-08 03:45:00,
2013-11-07 22:50:00,49.0,35.3,29.93,North,0,3.0,10.0,59,0.00,,,0.00,Weather View 32 v70,2013-11-08 03:50:00,
2013-11-07 22:55:00,49.0,35.3,29.93,North,0,3.0,10.0,59,0.00,,,0.00,Weather View 32 v70,2013-11-08 03:55:00,
2013-11-07 23:00:00,49.0,35.3,29.93,North,0,3.0,10.0,59,0.00,,,0.00,Weather View 32 v70,2013-11-08 04:00:00,
2013-11-07 23:05:00,48.0,34.8,29.94,North,0,3.0,10.0,60,0.00,,,0.00,Weather View 32 v70,2013-11-08 04:05:00,
2013-11-07 23:10:00,48.0,34.8,29.94,North,0,1.0,10.0,60,0.00,,,0.00,Weather View 32 v70,2013-11-08 04:10:00,
2013-11-07 23:15:00,48.0,35.2,29.94,ENE,68,2.0,10.0,61,0.00,,,0.00,Weather View 32 v70,2013-11-08 04:15:00,
2013-11-07 23:20:00,48.0,35.2,29.94,North,0,1.0,10.0,61,0.00,,,0.00,Weather View 32 v70,2013-11-08 04:20:00,
2013-11-07 23:25:00,48.0,35.6,29.94,ENE,68,3.0,10.0,62,0.00,,,0.00,Weather View 32 v70,2013-11-08 04:25:00,
2013-11-07 23:30:00,48.0,35.6,29.94,North,0,2.0,8.0,62,0.00,,,0.00,Weather View 32 v70,2013-11-08 04:30:00,
2013-11-07 23:35:00,48.0,35.6,29.94,ENE,68,2.0,8.0,62,0.00,,,0.00,Weather View 32 v70,2013-11-08 04:35:00,
2013-11-07 23:40:00,47.0,35.0,29.95,North,0,1.0,8.0,63,0.00,,,0.00,Weather View 32 v70,2013-11-08 04:40:00,
2013-11-07 23:45:00,47.0,35.0,29.95,North,0,3.0,8.0,63,0.00,,,0.00,Weather View 32 v70,2013-11-08 04:45:00,
2013-11-07 23:50:00,47.0,35.4,29.95,North,0,3.0,6.0,64,0.00,,,0.00,Weather View 32 v70,2013-11-08 04:50:00,
2013-11-07 23:55:00,47.0,35.4,29.95,North,0,3.0,6.0,64,0.00,,,0.00,Weather View 32 v70,2013-11-08 04:55:00,